createdAt,value
2022-11-02T00:02:55.325Z,40.38
2022-11-02T00:05:57.526Z,50.17
2022-11-02T00:08:59.653Z,43.45
2022-11-02T00:12:01.774Z,38.00
2022-11-02T00:15:05.119Z,43.08
2022-11-02T00:18:12.118Z,39.65
2022-11-02T00:21:16.469Z,39.43
2022-11-02T00:24:18.612Z,41.28
2022-11-02T00:27:20.849Z,41.38
2022-11-02T00:30:23.174Z,40.13
2022-11-02T00:33:26.196Z,42.83
2022-11-02T00:36:28.417Z,42.13
2022-11-02T00:39:30.563Z,45.33
2022-11-02T00:42:32.721Z,46.58
2022-11-02T00:45:34.913Z,44.60
2022-11-02T00:48:37.748Z,44.50
2022-11-02T00:51:40.579Z,48.23
2022-11-02T00:54:42.967Z,49.53
2022-11-02T00:57:45.202Z,46.50
2022-11-02T01:00:47.965Z,47.85
2022-11-02T01:03:50.311Z,43.35
2022-11-02T01:06:52.968Z,44.60
2022-11-02T01:09:55.458Z,48.80
2022-11-02T01:12:57.669Z,45.70
2022-11-02T01:15:59.794Z,39.30
2022-11-02T01:19:02.242Z,42.05
2022-11-02T01:22:04.441Z,45.03
2022-11-02T01:25:07.978Z,45.25
2022-11-02T01:28:10.684Z,44.55
2022-11-02T01:31:15.725Z,43.38
2022-11-02T01:34:18.705Z,50.03
2022-11-02T01:37:22.221Z,42.73
2022-11-02T01:40:25.208Z,47.38
2022-11-02T01:43:33.724Z,39.92
2022-11-02T01:46:42.453Z,51.10
2022-11-02T01:49:47.696Z,49.25
2022-11-02T01:52:50.894Z,43.87
2022-11-02T01:55:54.088Z,43.67
2022-11-02T01:59:00.562Z,54.17
2022-11-02T02:02:06.710Z,52.00
2022-11-02T02:05:11.763Z,51.10
2022-11-02T02:08:18.233Z,52.70
2022-11-02T02:11:36.077Z,51.90
2022-11-02T02:14:39.475Z,52.10
2022-11-02T02:17:50.216Z,49.05
2022-11-02T02:20:55.491Z,45.35
2022-11-02T02:24:25.043Z,44.07
2022-11-02T02:28:04.900Z,49.60
2022-11-02T02:31:18.490Z,41.97
2022-11-02T02:34:29.213Z,46.90
2022-11-02T02:37:37.119Z,49.15
2022-11-02T02:40:48.475Z,48.63
2022-11-02T02:43:55.123Z,45.55
2022-11-02T02:47:08.583Z,47.53
2022-11-02T02:50:18.376Z,47.72
2022-11-02T02:53:27.772Z,44.58
2022-11-02T02:56:34.824Z,44.63
2022-11-02T02:59:45.355Z,44.65
2022-11-02T03:03:01.669Z,44.35
2022-11-02T03:06:14.398Z,47.45
2022-11-02T03:09:43.995Z,48.33
2022-11-02T03:13:23.973Z,40.57
2022-11-02T03:16:38.757Z,39.08
2022-11-02T03:19:47.436Z,46.42
2022-11-02T03:23:19.278Z,43.75
2022-11-02T03:26:34.597Z,49.28
2022-11-02T03:29:40.165Z,43.73
2022-11-02T03:32:57.245Z,50.20
2022-11-02T03:36:06.926Z,43.63
2022-11-02T03:39:12.054Z,39.83
2022-11-02T03:42:18.105Z,41.63
2022-11-02T03:45:25.832Z,51.07
2022-11-02T03:48:34.809Z,46.72
2022-11-02T03:51:40.542Z,43.67
2022-11-02T03:54:50.007Z,46.80
2022-11-02T03:57:53.162Z,44.88
2022-11-02T04:01:03.829Z,43.13
2022-11-02T04:04:06.691Z,39.08
2022-11-02T04:07:09.621Z,38.58
2022-11-02T04:10:12.671Z,39.30
2022-11-02T04:13:33.163Z,37.75
2022-11-02T04:16:35.374Z,39.20
2022-11-02T04:19:45.464Z,41.50
2022-11-02T04:23:09.726Z,47.47
2022-11-02T04:26:12.243Z,50.95
2022-11-02T04:29:18.895Z,56.20
2022-11-02T04:32:40.233Z,56.37
2022-11-02T04:35:47.606Z,58.08
2022-11-02T04:38:50.491Z,53.58
2022-11-02T04:41:56.414Z,56.40
2022-11-02T04:45:07.109Z,53.28
2022-11-02T04:48:10.049Z,50.33
2022-11-02T04:51:13.734Z,45.88
2022-11-02T04:54:16.019Z,49.42
2022-11-02T04:57:19.497Z,48.65
2022-11-02T05:00:22.348Z,47.65
2022-11-02T05:03:26.522Z,44.20
2022-11-02T05:06:29.096Z,50.33
2022-11-02T05:09:31.599Z,50.72
2022-11-02T05:12:34.594Z,47.58
2022-11-02T05:15:39.356Z,47.60
2022-11-02T05:18:43.092Z,46.60
2022-11-02T05:21:45.660Z,45.38
2022-11-02T05:24:51.736Z,52.47
2022-11-02T05:27:57.020Z,47.38
2022-11-02T05:31:00.805Z,47.00
2022-11-02T05:34:04.731Z,48.43
2022-11-02T05:37:06.996Z,46.83
2022-11-02T05:40:09.860Z,44.10
2022-11-02T05:43:12.820Z,49.53
2022-11-02T05:46:15.174Z,46.95
2022-11-02T05:49:17.370Z,50.37
2022-11-02T05:52:19.684Z,49.92
2022-11-02T05:55:21.934Z,46.00
2022-11-02T05:58:24.904Z,46.42
2022-11-02T06:01:28.257Z,49.20
2022-11-02T06:04:31.298Z,49.90
2022-11-02T06:07:34.490Z,53.03
2022-11-02T06:10:37.585Z,51.55
2022-11-02T06:13:41.599Z,51.88
2022-11-02T06:16:44.491Z,52.55
2022-11-02T06:19:47.469Z,49.10
2022-11-02T06:22:50.671Z,51.90
2022-11-02T06:25:54.798Z,47.28
2022-11-02T06:28:57.884Z,58.25
2022-11-02T06:32:00.973Z,52.97
2022-11-02T06:35:04.074Z,51.43
2022-11-02T06:38:06.445Z,54.70
2022-11-02T06:41:08.763Z,55.50
2022-11-02T06:44:13.376Z,63.00
2022-11-02T06:47:15.571Z,57.13
2022-11-02T06:50:17.906Z,63.83
2022-11-02T06:53:20.132Z,55.67
2022-11-02T06:56:22.325Z,60.65
2022-11-02T06:59:24.517Z,62.70
2022-11-02T07:02:26.664Z,60.55
2022-11-02T07:05:29.032Z,55.60
2022-11-02T07:08:31.260Z,60.88
2022-11-02T07:11:33.396Z,50.80
2022-11-02T07:14:35.575Z,52.45
2022-11-02T07:17:41.254Z,52.25
2022-11-02T07:20:43.444Z,51.83
2022-11-02T07:23:45.603Z,51.05
2022-11-02T07:26:51.190Z,43.75
2022-11-02T07:29:53.440Z,40.25
2022-11-02T07:32:55.735Z,42.35
2022-11-02T07:35:57.887Z,36.53
2022-11-02T07:39:00.598Z,38.17
2022-11-02T07:42:02.877Z,37.97
2022-11-02T07:45:05.607Z,35.33
2022-11-02T07:48:09.231Z,35.13
2022-11-02T07:51:11.696Z,34.60
2022-11-02T07:54:13.915Z,39.00
2022-11-02T07:57:16.067Z,37.58
2022-11-02T08:00:18.568Z,34.50
2022-11-02T08:03:20.829Z,33.38
2022-11-02T08:06:23.136Z,33.93
2022-11-02T08:09:25.592Z,35.30
2022-11-02T08:12:28.271Z,32.95
2022-11-02T08:15:30.626Z,36.80
2022-11-02T08:18:33.002Z,36.85
2022-11-02T08:21:35.147Z,41.13
2022-11-02T08:24:37.310Z,43.22
2022-11-02T08:27:39.535Z,36.63
2022-11-02T08:30:42.086Z,30.77
2022-11-02T08:33:45.117Z,33.10
2022-11-02T08:36:47.269Z,33.63
2022-11-02T08:39:49.493Z,33.95
2022-11-02T08:43:02.354Z,28.58
2022-11-02T08:46:20.169Z,29.80
2022-11-02T08:49:22.420Z,30.00
2022-11-02T08:52:24.527Z,31.03
2022-11-02T08:55:26.987Z,27.98
2022-11-02T08:58:29.248Z,28.50
2022-11-02T09:01:31.624Z,26.63
2022-11-02T09:04:33.801Z,26.63
2022-11-02T09:07:36.057Z,26.10
2022-11-02T09:10:38.261Z,27.17
2022-11-02T09:13:40.718Z,27.00
2022-11-02T09:16:42.865Z,25.40
2022-11-02T09:19:45.135Z,26.52
2022-11-02T09:22:47.651Z,29.20
2022-11-02T09:25:50.295Z,25.60
2022-11-02T09:28:52.451Z,26.90
2022-11-02T09:31:54.682Z,28.88
2022-11-02T09:34:56.836Z,28.27
2022-11-02T09:37:59.109Z,28.73
2022-11-02T09:41:13.701Z,29.92
2022-11-02T09:44:23.494Z,25.45
2022-11-02T09:48:10.686Z,30.60
2022-11-02T09:50:56.530Z,28.67
2022-11-02T09:54:25.656Z,26.90
2022-11-02T09:57:29.718Z,27.30
2022-11-02T10:00:35.891Z,27.35
2022-11-02T10:03:57.520Z,28.88
2022-11-02T10:07:31.570Z,29.08
2022-11-02T10:10:46.460Z,27.07
2022-11-02T10:13:56.828Z,25.95
2022-11-02T10:17:23.376Z,29.33
2022-11-02T10:20:33.027Z,26.58
2022-11-02T10:23:40.987Z,28.75
2022-11-02T10:26:43.657Z,28.43
2022-11-02T10:29:48.699Z,29.42
2022-11-02T10:32:52.169Z,27.33
2022-11-02T10:36:19.826Z,25.95
2022-11-02T10:39:35.986Z,26.42
2022-11-02T10:42:54.301Z,25.07
2022-11-02T10:45:56.403Z,32.13
2022-11-02T10:49:04.223Z,26.45
2022-11-02T10:52:06.613Z,26.35
2022-11-02T10:55:16.002Z,27.13
2022-11-02T10:58:21.450Z,27.40
2022-11-02T11:01:23.750Z,23.25
2022-11-02T11:04:27.955Z,25.55
2022-11-02T11:07:30.190Z,21.23
2022-11-02T11:10:38.079Z,22.60
2022-11-02T11:20:38.684Z,21.02
2022-11-02T11:23:40.831Z,22.02
2022-11-02T11:26:42.967Z,22.08
2022-11-02T11:29:57.902Z,19.83
2022-11-02T11:33:01.039Z,19.50
2022-11-02T11:36:03.390Z,17.08
2022-11-02T11:39:23.399Z,18.60
2022-11-02T11:42:28.619Z,17.52
2022-11-02T11:45:32.814Z,18.33
2022-11-02T11:48:35.003Z,18.05
2022-11-02T11:51:45.186Z,16.13
2022-11-02T11:54:58.008Z,17.38
2022-11-02T11:58:32.919Z,17.88
2022-11-02T12:01:41.079Z,18.73
2022-11-02T12:04:43.301Z,19.58
2022-11-02T12:08:10.599Z,18.80
2022-11-02T12:11:39.903Z,18.48
2022-11-02T12:15:05.465Z,19.67
2022-11-02T12:18:37.021Z,21.67
2022-11-02T12:21:46.122Z,19.08
2022-11-02T12:25:15.287Z,18.58
2022-11-02T12:28:44.506Z,20.15
2022-11-02T12:31:56.713Z,22.25
2022-11-02T12:35:28.780Z,20.03
2022-11-02T12:38:49.327Z,20.42
2022-11-02T12:41:57.700Z,20.30
2022-11-02T12:45:09.816Z,21.15
2022-11-02T12:48:15.250Z,17.58
2022-11-02T12:51:22.072Z,20.80
2022-11-02T12:54:39.160Z,30.50
2022-11-02T12:57:43.821Z,19.38
2022-11-02T13:00:48.934Z,20.98
2022-11-02T13:04:26.018Z,18.55
2022-11-02T13:07:39.245Z,17.13
2022-11-02T13:10:53.166Z,19.60
2022-11-02T13:13:57.651Z,16.50
2022-11-02T13:17:05.691Z,15.35
2022-11-02T13:20:36.176Z,15.32
2022-11-02T13:23:52.253Z,16.77
2022-11-02T13:26:57.396Z,15.00
2022-11-02T13:30:12.889Z,17.38
2022-11-02T13:33:21.415Z,18.45
2022-11-02T13:36:23.589Z,19.52
2022-11-02T13:39:37.325Z,14.80
2022-11-02T13:42:46.515Z,17.25
2022-11-02T13:46:21.984Z,17.90
2022-11-02T13:49:30.608Z,15.52
2022-11-02T13:52:45.964Z,14.90
2022-11-02T13:55:54.476Z,14.93
2022-11-02T13:59:16.511Z,13.32
2022-11-02T14:02:19.863Z,13.93
2022-11-02T14:05:33.983Z,14.43
2022-11-02T14:08:38.938Z,16.38
2022-11-02T14:11:41.052Z,11.57
2022-11-02T14:14:44.132Z,9.18
2022-11-02T14:17:55.293Z,8.40
2022-11-02T14:20:59.517Z,7.00
2022-11-02T14:24:33.763Z,8.73
2022-11-02T14:27:36.905Z,5.97
2022-11-02T14:30:45.163Z,7.22
2022-11-02T14:34:10.057Z,8.73
2022-11-02T14:37:41.280Z,7.72
2022-11-02T14:40:49.194Z,7.45
2022-11-02T14:44:12.814Z,8.00
2022-11-02T14:47:16.715Z,8.20
2022-11-02T14:50:20.306Z,7.22
2022-11-02T14:53:26.122Z,7.32
2022-11-02T14:56:57.971Z,6.53
2022-11-02T15:00:04.023Z,7.37
2022-11-02T15:03:27.743Z,9.55
2022-11-02T15:06:31.856Z,6.88
2022-11-02T15:09:55.440Z,9.68
2022-11-02T15:13:19.225Z,9.77
2022-11-02T15:16:22.547Z,7.53
2022-11-02T15:19:39.250Z,8.60
2022-11-02T15:22:48.024Z,9.40
2022-11-02T15:25:52.534Z,8.23
2022-11-02T15:28:57.365Z,11.63
2022-11-02T15:32:00.863Z,8.33
2022-11-02T15:35:03.178Z,6.88
2022-11-02T15:38:27.990Z,8.30
2022-11-02T15:41:43.851Z,9.20
2022-11-02T15:45:27.022Z,9.90
2022-11-02T15:48:58.929Z,8.20
2022-11-02T15:52:15.590Z,10.25
2022-11-02T15:55:17.716Z,9.98
2022-11-02T15:58:22.832Z,10.70
2022-11-02T16:01:28.616Z,8.40
2022-11-02T16:04:33.545Z,9.53
2022-11-02T16:07:50.172Z,10.35
2022-11-02T16:11:05.496Z,10.48
2022-11-02T16:14:16.368Z,9.82
2022-11-02T16:17:23.591Z,9.32
2022-11-02T16:20:30.966Z,9.70
2022-11-02T16:23:35.526Z,9.13
2022-11-02T16:26:37.771Z,10.40
2022-11-02T16:29:40.700Z,10.10
2022-11-02T16:32:43.240Z,10.15
2022-11-02T16:35:45.543Z,9.97
2022-11-02T16:39:07.824Z,12.30
2022-11-02T16:42:15.589Z,11.85
2022-11-02T16:45:42.146Z,11.23
2022-11-02T16:49:07.180Z,11.90
2022-11-02T16:52:24.132Z,9.77
2022-11-02T16:55:35.959Z,11.85
2022-11-02T16:58:38.516Z,12.15
2022-11-02T17:01:41.334Z,12.90
2022-11-02T17:04:45.783Z,12.13
2022-11-02T17:08:05.450Z,12.90
2022-11-02T17:11:16.579Z,14.25
2022-11-02T17:14:20.756Z,17.48
2022-11-02T17:17:22.883Z,17.98
2022-11-02T17:20:25.654Z,16.60
2022-11-02T17:23:33.852Z,14.63
2022-11-02T17:26:37.651Z,15.70
2022-11-02T17:29:40.327Z,18.33
2022-11-02T17:32:43.035Z,21.23
2022-11-02T17:35:47.074Z,20.95
2022-11-02T17:38:49.295Z,23.10
2022-11-02T17:42:14.851Z,19.90
2022-11-02T17:45:31.382Z,24.48
2022-11-02T17:48:35.749Z,25.63
2022-11-02T17:51:39.049Z,32.55
2022-11-02T17:54:42.095Z,29.47
2022-11-02T17:57:44.765Z,25.10
2022-11-02T18:00:47.458Z,26.45
2022-11-02T18:03:50.140Z,27.27
2022-11-02T18:06:52.665Z,27.42
2022-11-02T18:09:54.952Z,25.37
2022-11-02T18:12:57.643Z,23.75
2022-11-02T18:15:59.945Z,23.58
2022-11-02T18:19:02.458Z,39.25
2022-11-02T18:22:05.326Z,41.25
2022-11-02T18:25:13.082Z,29.37
2022-11-02T18:28:16.172Z,21.10
2022-11-02T18:31:21.453Z,16.63
2022-11-02T18:34:24.128Z,15.88
2022-11-02T18:37:27.282Z,13.70
2022-11-02T18:40:35.060Z,12.60
2022-11-02T18:43:37.566Z,12.20
2022-11-02T18:46:40.316Z,11.05
2022-11-02T18:49:43.662Z,13.13
2022-11-02T18:52:49.904Z,13.40
2022-11-02T18:55:52.699Z,11.67
2022-11-02T18:58:56.144Z,20.90
2022-11-02T19:01:59.665Z,34.33
2022-11-02T19:05:02.290Z,19.65
2022-11-02T19:08:23.559Z,23.77
2022-11-02T19:11:26.817Z,22.53
2022-11-02T19:14:35.074Z,16.10
2022-11-02T19:17:37.673Z,14.52
2022-11-02T19:20:40.265Z,11.25
2022-11-02T19:23:42.808Z,12.60
2022-11-02T19:26:46.102Z,10.93
2022-11-02T19:29:50.856Z,11.02
2022-11-02T19:32:53.784Z,13.05
2022-11-02T19:35:57.527Z,11.25
2022-11-02T19:39:04.020Z,11.15
2022-11-02T19:42:07.994Z,10.83
2022-11-02T19:45:16.874Z,12.77
2022-11-02T19:48:19.488Z,12.40
2022-11-02T19:51:24.291Z,12.27
2022-11-02T19:54:27.422Z,12.18
2022-11-02T19:57:33.339Z,13.30
2022-11-02T20:00:36.761Z,11.30
2022-11-02T20:03:40.102Z,10.45
2022-11-02T20:06:43.686Z,13.65
2022-11-02T20:09:46.454Z,21.52
2022-11-02T20:12:52.335Z,13.10
2022-11-02T20:15:56.692Z,13.02
2022-11-02T20:18:59.510Z,12.07
2022-11-02T20:22:02.104Z,13.07
2022-11-02T20:25:08.313Z,12.05
2022-11-02T20:28:11.080Z,12.27
2022-11-02T20:31:22.527Z,13.50
2022-11-02T20:34:25.200Z,15.20
2022-11-02T20:37:27.881Z,14.18
2022-11-02T20:40:34.491Z,12.27
2022-11-02T20:43:42.247Z,12.87
2022-11-02T20:46:52.771Z,12.55
2022-11-02T20:49:55.785Z,11.90
2022-11-02T20:52:59.613Z,10.55
2022-11-02T20:56:02.904Z,11.75
2022-11-02T20:59:06.159Z,12.27
2022-11-02T21:02:11.266Z,11.20
2022-11-02T21:05:14.541Z,11.85
2022-11-02T21:08:18.341Z,10.40
2022-11-02T21:11:39.097Z,13.23
2022-11-02T21:14:41.274Z,9.97
2022-11-02T21:17:43.928Z,10.93
2022-11-02T21:20:46.103Z,12.88
2022-11-02T21:23:48.513Z,10.13
2022-11-02T21:26:50.634Z,10.35
2022-11-02T21:29:52.977Z,10.37
2022-11-02T21:32:55.162Z,10.40
2022-11-02T21:35:57.983Z,10.77
2022-11-02T21:39:00.474Z,12.75
2022-11-02T21:42:03.819Z,14.73
2022-11-02T21:45:06.653Z,14.33
2022-11-02T21:48:08.791Z,14.48
2022-11-02T21:51:16.498Z,15.15
2022-11-02T21:54:18.643Z,15.60
2022-11-02T21:57:21.363Z,15.82
2022-11-02T22:00:43.756Z,13.17
2022-11-02T22:03:46.401Z,14.18
2022-11-02T22:06:49.877Z,14.55
2022-11-02T22:09:52.078Z,13.95
2022-11-02T22:13:12.795Z,16.42
2022-11-02T22:16:27.709Z,19.93
2022-11-02T22:19:29.865Z,16.38
2022-11-02T22:22:32.033Z,16.58
2022-11-02T22:25:34.217Z,18.08
2022-11-02T22:28:39.481Z,18.67
2022-11-02T22:31:42.140Z,17.30
2022-11-02T22:34:44.289Z,15.63
2022-11-02T22:38:05.068Z,13.75
2022-11-02T22:41:07.210Z,13.90
2022-11-02T22:44:17.800Z,15.27
2022-11-02T22:47:19.938Z,16.67
2022-11-02T22:50:23.810Z,19.23
2022-11-02T22:53:28.973Z,14.82
2022-11-02T22:56:31.466Z,16.42
2022-11-02T22:59:33.561Z,15.10
2022-11-02T23:02:36.000Z,16.30
2022-11-02T23:05:38.133Z,17.33
2022-11-02T23:08:42.945Z,18.33
2022-11-02T23:11:45.054Z,16.50
2022-11-02T23:14:47.182Z,13.45
2022-11-02T23:17:49.292Z,14.87
2022-11-02T23:20:51.842Z,13.93
2022-11-02T23:24:12.624Z,14.00
2022-11-02T23:27:14.790Z,14.02
2022-11-02T23:30:35.415Z,13.38
2022-11-02T23:33:37.618Z,14.63
2022-11-02T23:36:39.806Z,14.63
2022-11-02T23:39:48.508Z,13.88
2022-11-02T23:42:51.293Z,13.27
2022-11-02T23:45:54.179Z,12.32
2022-11-02T23:48:57.178Z,14.30
2022-11-02T23:52:18.699Z,11.05
2022-11-02T23:55:40.018Z,15.88
2022-11-02T23:58:43.316Z,14.90
